sensor_id;sensor_type;location;lat;lon;timestamp;temperature;humidity
43808;DHT22;29438;50.664;10.098;2023-12-04T00:01:32;-3271.90;90.30
43808;DHT22;29438;50.664;10.098;2023-12-04T00:03:58;-3271.80;90.40
43808;DHT22;29438;50.664;10.098;2023-12-04T00:06:23;-3271.70;90.60
43808;DHT22;29438;50.664;10.098;2023-12-04T00:08:49;-3271.80;90.70
43808;DHT22;29438;50.664;10.098;2023-12-04T00:11:14;-3271.70;90.70
43808;DHT22;29438;50.664;10.098;2023-12-04T00:13:40;-3271.70;90.80
43808;DHT22;29438;50.664;10.098;2023-12-04T00:16:06;-3271.70;90.80
43808;DHT22;29438;50.664;10.098;2023-12-04T00:18:32;-3271.70;90.80
43808;DHT22;29438;50.664;10.098;2023-12-04T00:20:57;-3271.60;90.80
43808;DHT22;29438;50.664;10.098;2023-12-04T00:23:23;-3271.60;90.80
43808;DHT22;29438;50.664;10.098;2023-12-04T00:25:48;-3271.60;90.80
43808;DHT22;29438;50.664;10.098;2023-12-04T00:28:14;-3271.70;90.90
43808;DHT22;29438;50.664;10.098;2023-12-04T00:30:39;-3271.60;90.80
43808;DHT22;29438;50.664;10.098;2023-12-04T00:33:05;-3271.60;90.80
43808;DHT22;29438;50.664;10.098;2023-12-04T00:35:30;-3271.60;90.80
43808;DHT22;29438;50.664;10.098;2023-12-04T00:37:56;-3271.60;90.80
43808;DHT22;29438;50.664;10.098;2023-12-04T00:40:21;-3271.60;90.80
43808;DHT22;29438;50.664;10.098;2023-12-04T00:42:47;-3271.50;90.80
43808;DHT22;29438;50.664;10.098;2023-12-04T00:45:12;-3271.50;90.90
43808;DHT22;29438;50.664;10.098;2023-12-04T00:47:38;-3271.50;91.00
43808;DHT22;29438;50.664;10.098;2023-12-04T00:50:04;-3271.50;91.10
43808;DHT22;29438;50.664;10.098;2023-12-04T00:52:29;-3271.50;91.00
43808;DHT22;29438;50.664;10.098;2023-12-04T00:54:55;-3271.50;91.00
43808;DHT22;29438;50.664;10.098;2023-12-04T00:57:21;-3271.40;91.10
43808;DHT22;29438;50.664;10.098;2023-12-04T00:59:46;-3271.40;91.20
43808;DHT22;29438;50.664;10.098;2023-12-04T01:02:12;-3271.40;91.10
43808;DHT22;29438;50.664;10.098;2023-12-04T01:04:40;-3271.50;91.20
43808;DHT22;29438;50.664;10.098;2023-12-04T01:07:06;-3271.50;91.10
43808;DHT22;29438;50.664;10.098;2023-12-04T01:09:37;-3271.50;91.00
43808;DHT22;29438;50.664;10.098;2023-12-04T01:12:03;-3271.50;91.00
43808;DHT22;29438;50.664;10.098;2023-12-04T01:14:29;-3271.50;91.00
43808;DHT22;29438;50.664;10.098;2023-12-04T01:16:55;-3271.50;91.00
43808;DHT22;29438;50.664;10.098;2023-12-04T01:19:21;-3271.50;91.00
43808;DHT22;29438;50.664;10.098;2023-12-04T01:21:46;-3271.50;91.00
43808;DHT22;29438;50.664;10.098;2023-12-04T01:24:14;-3271.60;90.80
43808;DHT22;29438;50.664;10.098;2023-12-04T01:26:39;-3271.60;90.70
43808;DHT22;29438;50.664;10.098;2023-12-04T01:29:05;-3271.60;90.60
43808;DHT22;29438;50.664;10.098;2023-12-04T01:31:30;-3271.50;90.50
43808;DHT22;29438;50.664;10.098;2023-12-04T01:33:56;-3271.60;90.60
43808;DHT22;29438;50.664;10.098;2023-12-04T01:36:21;-3271.60;90.40
43808;DHT22;29438;50.664;10.098;2023-12-04T01:38:47;-3271.60;90.40
43808;DHT22;29438;50.664;10.098;2023-12-04T01:41:13;-3271.60;90.40
43808;DHT22;29438;50.664;10.098;2023-12-04T01:43:38;-3271.60;90.30
43808;DHT22;29438;50.664;10.098;2023-12-04T01:46:04;-3271.60;90.30
43808;DHT22;29438;50.664;10.098;2023-12-04T01:48:30;-3271.60;90.40
43808;DHT22;29438;50.664;10.098;2023-12-04T01:50:57;-3271.60;90.30
43808;DHT22;29438;50.664;10.098;2023-12-04T01:53:23;-3271.70;90.30
43808;DHT22;29438;50.664;10.098;2023-12-04T01:55:49;-3271.60;90.20
43808;DHT22;29438;50.664;10.098;2023-12-04T01:58:15;-3271.50;90.10
43808;DHT22;29438;50.664;10.098;2023-12-04T02:00:41;-3271.50;90.20
43808;DHT22;29438;50.664;10.098;2023-12-04T02:03:08;-3271.50;90.30
43808;DHT22;29438;50.664;10.098;2023-12-04T02:05:35;-3271.50;90.30
43808;DHT22;29438;50.664;10.098;2023-12-04T02:08:02;-3271.40;90.30
43808;DHT22;29438;50.664;10.098;2023-12-04T02:10:29;-3271.30;90.50
43808;DHT22;29438;50.664;10.098;2023-12-04T02:12:54;-3271.30;90.60
43808;DHT22;29438;50.664;10.098;2023-12-04T02:15:20;-3271.30;90.70
43808;DHT22;29438;50.664;10.098;2023-12-04T02:17:46;-3271.30;90.70
43808;DHT22;29438;50.664;10.098;2023-12-04T02:20:14;-3271.30;90.80
43808;DHT22;29438;50.664;10.098;2023-12-04T02:22:40;-3271.30;90.90
43808;DHT22;29438;50.664;10.098;2023-12-04T02:25:07;-3271.20;90.90
43808;DHT22;29438;50.664;10.098;2023-12-04T02:27:47;-3271.20;90.90
43808;DHT22;29438;50.664;10.098;2023-12-04T02:30:17;-3271.20;91.00
43808;DHT22;29438;50.664;10.098;2023-12-04T02:32:45;-3271.20;91.00
43808;DHT22;29438;50.664;10.098;2023-12-04T02:35:12;-3271.20;90.70
43808;DHT22;29438;50.664;10.098;2023-12-04T02:37:39;-3271.30;90.90
43808;DHT22;29438;50.664;10.098;2023-12-04T02:40:06;-3271.30;90.80
43808;DHT22;29438;50.664;10.098;2023-12-04T02:42:32;-3271.20;90.90
43808;DHT22;29438;50.664;10.098;2023-12-04T02:44:58;-3271.20;90.90
43808;DHT22;29438;50.664;10.098;2023-12-04T02:47:23;-3271.20;90.90
43808;DHT22;29438;50.664;10.098;2023-12-04T02:49:49;-3271.30;90.90
43808;DHT22;29438;50.664;10.098;2023-12-04T02:52:14;-3271.30;90.80
43808;DHT22;29438;50.664;10.098;2023-12-04T02:54:40;-3271.30;90.70
43808;DHT22;29438;50.664;10.098;2023-12-04T02:57:05;-3271.30;90.60
43808;DHT22;29438;50.664;10.098;2023-12-04T02:59:31;-3271.30;90.70
43808;DHT22;29438;50.664;10.098;2023-12-04T03:01:56;-3271.30;90.70
43808;DHT22;29438;50.664;10.098;2023-12-04T03:04:22;-3271.20;90.60
43808;DHT22;29438;50.664;10.098;2023-12-04T03:06:47;-3271.30;90.60
43808;DHT22;29438;50.664;10.098;2023-12-04T03:09:13;-3271.30;90.70
43808;DHT22;29438;50.664;10.098;2023-12-04T03:11:41;-3271.30;90.60
43808;DHT22;29438;50.664;10.098;2023-12-04T03:14:07;-3271.30;90.50
43808;DHT22;29438;50.664;10.098;2023-12-04T03:16:33;-3271.20;90.40
43808;DHT22;29438;50.664;10.098;2023-12-04T03:18:59;-3271.20;90.50
43808;DHT22;29438;50.664;10.098;2023-12-04T03:21:24;-3271.20;90.50
43808;DHT22;29438;50.664;10.098;2023-12-04T03:23:50;-3271.10;90.60
43808;DHT22;29438;50.664;10.098;2023-12-04T03:26:16;-3271.20;90.50
43808;DHT22;29438;50.664;10.098;2023-12-04T03:28:41;-3271.10;90.50
43808;DHT22;29438;50.664;10.098;2023-12-04T03:31:07;-3271.10;90.60
43808;DHT22;29438;50.664;10.098;2023-12-04T03:33:32;-3271.10;90.60
43808;DHT22;29438;50.664;10.098;2023-12-04T03:36:01;-3271.10;90.60
43808;DHT22;29438;50.664;10.098;2023-12-04T03:38:26;-3271.20;90.60
43808;DHT22;29438;50.664;10.098;2023-12-04T03:40:52;-3271.10;90.40
43808;DHT22;29438;50.664;10.098;2023-12-04T03:43:17;-3271.20;90.50
43808;DHT22;29438;50.664;10.098;2023-12-04T03:45:43;-3271.10;90.40
43808;DHT22;29438;50.664;10.098;2023-12-04T03:48:08;-3271.10;90.40
43808;DHT22;29438;50.664;10.098;2023-12-04T03:50:34;-3271.10;90.50
43808;DHT22;29438;50.664;10.098;2023-12-04T03:52:59;-3271.10;90.60
43808;DHT22;29438;50.664;10.098;2023-12-04T03:55:25;-3271.10;90.50
43808;DHT22;29438;50.664;10.098;2023-12-04T03:57:52;-3271.10;90.50
43808;DHT22;29438;50.664;10.098;2023-12-04T04:00:18;-3271.00;90.50
43808;DHT22;29438;50.664;10.098;2023-12-04T04:02:44;-3271.10;90.50
43808;DHT22;29438;50.664;10.098;2023-12-04T04:05:09;-3271.10;90.50
43808;DHT22;29438;50.664;10.098;2023-12-04T04:07:35;-3271.00;90.50
43808;DHT22;29438;50.664;10.098;2023-12-04T04:10:01;-3271.10;90.50
43808;DHT22;29438;50.664;10.098;2023-12-04T04:12:30;-3271.00;90.50
43808;DHT22;29438;50.664;10.098;2023-12-04T04:14:56;-3271.00;90.50
43808;DHT22;29438;50.664;10.098;2023-12-04T04:17:21;-3271.00;90.50
43808;DHT22;29438;50.664;10.098;2023-12-04T04:19:47;-3271.00;90.50
43808;DHT22;29438;50.664;10.098;2023-12-04T04:22:12;-3271.00;90.40
43808;DHT22;29438;50.664;10.098;2023-12-04T04:24:38;-3271.00;90.40
43808;DHT22;29438;50.664;10.098;2023-12-04T04:27:04;-3271.00;90.40
43808;DHT22;29438;50.664;10.098;2023-12-04T04:29:29;-3271.00;90.40
43808;DHT22;29438;50.664;10.098;2023-12-04T04:31:55;-3271.00;90.40
43808;DHT22;29438;50.664;10.098;2023-12-04T04:34:21;-3271.00;90.40
43808;DHT22;29438;50.664;10.098;2023-12-04T04:36:47;-3270.90;90.50
43808;DHT22;29438;50.664;10.098;2023-12-04T04:39:13;-3270.90;90.50
43808;DHT22;29438;50.664;10.098;2023-12-04T04:41:39;-3270.90;90.50
43808;DHT22;29438;50.664;10.098;2023-12-04T04:44:05;-3270.90;90.60
43808;DHT22;29438;50.664;10.098;2023-12-04T04:46:30;-3270.90;90.70
43808;DHT22;29438;50.664;10.098;2023-12-04T04:48:56;-3270.90;90.60
43808;DHT22;29438;50.664;10.098;2023-12-04T04:51:22;-3270.80;90.60
43808;DHT22;29438;50.664;10.098;2023-12-04T04:53:47;-3270.90;90.70
43808;DHT22;29438;50.664;10.098;2023-12-04T04:56:14;-3270.80;90.70
43808;DHT22;29438;50.664;10.098;2023-12-04T04:58:40;-3270.90;90.70
43808;DHT22;29438;50.664;10.098;2023-12-04T05:01:06;-3270.90;90.80
43808;DHT22;29438;50.664;10.098;2023-12-04T05:03:32;-3270.90;90.70
43808;DHT22;29438;50.664;10.098;2023-12-04T05:05:57;-3270.90;90.60
43808;DHT22;29438;50.664;10.098;2023-12-04T05:08:23;-3271.00;90.60
43808;DHT22;29438;50.664;10.098;2023-12-04T05:10:48;-3271.00;90.60
43808;DHT22;29438;50.664;10.098;2023-12-04T05:13:14;-3271.00;90.50
43808;DHT22;29438;50.664;10.098;2023-12-04T05:15:39;-3271.00;90.50
43808;DHT22;29438;50.664;10.098;2023-12-04T05:18:05;-3271.10;90.40
43808;DHT22;29438;50.664;10.098;2023-12-04T05:20:31;-3271.10;90.40
43808;DHT22;29438;50.664;10.098;2023-12-04T05:22:57;-3271.10;90.30
43808;DHT22;29438;50.664;10.098;2023-12-04T05:25:22;-3271.10;90.20
43808;DHT22;29438;50.664;10.098;2023-12-04T05:27:48;-3271.10;90.30
43808;DHT22;29438;50.664;10.098;2023-12-04T05:30:14;-3271.20;90.20
43808;DHT22;29438;50.664;10.098;2023-12-04T05:32:39;-3271.10;90.20
43808;DHT22;29438;50.664;10.098;2023-12-04T05:35:05;-3271.20;90.00
43808;DHT22;29438;50.664;10.098;2023-12-04T05:37:31;-3271.20;89.80
43808;DHT22;29438;50.664;10.098;2023-12-04T05:39:57;-3271.30;89.70
43808;DHT22;29438;50.664;10.098;2023-12-04T05:42:23;-3271.20;89.60
43808;DHT22;29438;50.664;10.098;2023-12-04T05:44:48;-3271.20;89.60
43808;DHT22;29438;50.664;10.098;2023-12-04T05:47:14;-3271.10;89.60
43808;DHT22;29438;50.664;10.098;2023-12-04T05:49:40;-3271.20;89.60
43808;DHT22;29438;50.664;10.098;2023-12-04T05:52:06;-3271.10;89.60
43808;DHT22;29438;50.664;10.098;2023-12-04T05:54:31;-3271.10;89.70
43808;DHT22;29438;50.664;10.098;2023-12-04T05:56:57;-3271.20;89.70
43808;DHT22;29438;50.664;10.098;2023-12-04T05:59:22;-3271.20;89.60
43808;DHT22;29438;50.664;10.098;2023-12-04T06:01:48;-3271.20;89.60
43808;DHT22;29438;50.664;10.098;2023-12-04T06:04:13;-3271.20;89.40
43808;DHT22;29438;50.664;10.098;2023-12-04T06:06:39;-3271.10;89.50
43808;DHT22;29438;50.664;10.098;2023-12-04T06:09:04;-3271.10;89.50
43808;DHT22;29438;50.664;10.098;2023-12-04T06:11:30;-3271.00;89.60
43808;DHT22;29438;50.664;10.098;2023-12-04T06:13:56;-3271.00;89.70
43808;DHT22;29438;50.664;10.098;2023-12-04T06:16:21;-3271.00;89.80
43808;DHT22;29438;50.664;10.098;2023-12-04T06:18:47;-3271.00;89.80
43808;DHT22;29438;50.664;10.098;2023-12-04T06:21:12;-3271.00;89.80
43808;DHT22;29438;50.664;10.098;2023-12-04T06:23:38;-3271.00;89.80
43808;DHT22;29438;50.664;10.098;2023-12-04T06:26:04;-3270.90;89.80
43808;DHT22;29438;50.664;10.098;2023-12-04T06:28:30;-3270.90;89.80
43808;DHT22;29438;50.664;10.098;2023-12-04T06:30:56;-3270.90;89.70
43808;DHT22;29438;50.664;10.098;2023-12-04T06:33:22;-3270.80;89.80
43808;DHT22;29438;50.664;10.098;2023-12-04T06:35:48;-3270.90;89.70
43808;DHT22;29438;50.664;10.098;2023-12-04T06:38:15;-3270.90;89.50
43808;DHT22;29438;50.664;10.098;2023-12-04T06:40:41;-3270.90;89.40
43808;DHT22;29438;50.664;10.098;2023-12-04T06:43:07;-3270.90;89.40
43808;DHT22;29438;50.664;10.098;2023-12-04T06:45:33;-3270.80;89.40
43808;DHT22;29438;50.664;10.098;2023-12-04T06:47:59;-3270.90;89.60
43808;DHT22;29438;50.664;10.098;2023-12-04T06:50:26;-3270.90;89.40
43808;DHT22;29438;50.664;10.098;2023-12-04T06:52:51;-3270.90;89.20
43808;DHT22;29438;50.664;10.098;2023-12-04T06:55:17;-3270.80;89.30
43808;DHT22;29438;50.664;10.098;2023-12-04T06:57:42;-3270.90;89.40
43808;DHT22;29438;50.664;10.098;2023-12-04T07:00:08;-3270.80;89.30
43808;DHT22;29438;50.664;10.098;2023-12-04T07:02:37;-3270.80;89.30
43808;DHT22;29438;50.664;10.098;2023-12-04T07:05:03;-3270.80;89.30
43808;DHT22;29438;50.664;10.098;2023-12-04T07:07:29;-3270.70;89.30
43808;DHT22;29438;50.664;10.098;2023-12-04T07:09:54;-3270.70;89.40
43808;DHT22;29438;50.664;10.098;2023-12-04T07:12:20;-3270.70;89.40
43808;DHT22;29438;50.664;10.098;2023-12-04T07:14:45;-3270.70;89.40
43808;DHT22;29438;50.664;10.098;2023-12-04T07:17:11;-3270.60;89.30
43808;DHT22;29438;50.664;10.098;2023-12-04T07:19:36;-3270.60;89.30
43808;DHT22;29438;50.664;10.098;2023-12-04T07:22:02;-3270.60;89.30
43808;DHT22;29438;50.664;10.098;2023-12-04T07:24:28;-3270.70;89.20
43808;DHT22;29438;50.664;10.098;2023-12-04T07:26:53;-3270.70;89.20
43808;DHT22;29438;50.664;10.098;2023-12-04T07:29:19;-3270.80;89.20
43808;DHT22;29438;50.664;10.098;2023-12-04T07:31:44;-3270.80;89.20
43808;DHT22;29438;50.664;10.098;2023-12-04T07:34:10;-3270.90;89.00
43808;DHT22;29438;50.664;10.098;2023-12-04T07:36:35;-3271.00;88.90
43808;DHT22;29438;50.664;10.098;2023-12-04T07:39:01;-3271.10;88.50
43808;DHT22;29438;50.664;10.098;2023-12-04T07:41:26;-3271.00;88.20
43808;DHT22;29438;50.664;10.098;2023-12-04T07:43:52;-3270.90;88.10
43808;DHT22;29438;50.664;10.098;2023-12-04T07:46:18;-3270.90;88.10
43808;DHT22;29438;50.664;10.098;2023-12-04T07:48:43;-3271.00;88.10
43808;DHT22;29438;50.664;10.098;2023-12-04T07:51:11;-3271.10;87.90
43808;DHT22;29438;50.664;10.098;2023-12-04T07:53:37;-3271.10;87.60
43808;DHT22;29438;50.664;10.098;2023-12-04T07:56:03;-3271.10;87.20
43808;DHT22;29438;50.664;10.098;2023-12-04T07:58:29;-3271.10;87.00
43808;DHT22;29438;50.664;10.098;2023-12-04T08:00:54;-3271.30;87.40
43808;DHT22;29438;50.664;10.098;2023-12-04T08:03:21;-3271.50;86.90
43808;DHT22;29438;50.664;10.098;2023-12-04T08:05:47;-3271.60;86.20
43808;DHT22;29438;50.664;10.098;2023-12-04T08:08:13;-3272.00;85.70
43808;DHT22;29438;50.664;10.098;2023-12-04T08:10:38;-3272.40;84.80
43808;DHT22;29438;50.664;10.098;2023-12-04T08:13:04;-3272.40;83.30
43808;DHT22;29438;50.664;10.098;2023-12-04T08:15:30;-3272.30;83.70
43808;DHT22;29438;50.664;10.098;2023-12-04T08:17:55;-3272.20;83.60
43808;DHT22;29438;50.664;10.098;2023-12-04T08:20:23;-3272.30;83.80
43808;DHT22;29438;50.664;10.098;2023-12-04T08:22:48;-3272.10;83.50
43808;DHT22;29438;50.664;10.098;2023-12-04T08:25:14;-3271.90;84.00
43808;DHT22;29438;50.664;10.098;2023-12-04T08:27:40;-3272.00;84.50
43808;DHT22;29438;50.664;10.098;2023-12-04T08:30:06;-3271.90;84.40
43808;DHT22;29438;50.664;10.098;2023-12-04T08:32:31;-3271.90;84.60
43808;DHT22;29438;50.664;10.098;2023-12-04T08:34:57;-3271.90;84.30
43808;DHT22;29438;50.664;10.098;2023-12-04T08:37:22;-3271.90;84.50
43808;DHT22;29438;50.664;10.098;2023-12-04T08:39:48;-3272.10;84.50
43808;DHT22;29438;50.664;10.098;2023-12-04T08:42:13;-3272.10;84.10
43808;DHT22;29438;50.664;10.098;2023-12-04T08:44:39;-3272.10;83.70
43808;DHT22;29438;50.664;10.098;2023-12-04T08:47:05;-3272.20;83.70
43808;DHT22;29438;50.664;10.098;2023-12-04T08:49:31;-3272.30;83.70
43808;DHT22;29438;50.664;10.098;2023-12-04T08:51:57;-3272.20;83.50
43808;DHT22;29438;50.664;10.098;2023-12-04T08:54:24;-3272.20;83.50
43808;DHT22;29438;50.664;10.098;2023-12-04T08:56:49;-3272.30;83.50
43808;DHT22;29438;50.664;10.098;2023-12-04T08:59:15;-3272.30;83.60
43808;DHT22;29438;50.664;10.098;2023-12-04T09:01:42;-3272.50;83.80
43808;DHT22;29438;50.664;10.098;2023-12-04T09:04:08;-3272.40;83.40
43808;DHT22;29438;50.664;10.098;2023-12-04T09:06:34;-3272.30;82.80
43808;DHT22;29438;50.664;10.098;2023-12-04T09:09:00;-3272.20;83.90
43808;DHT22;29438;50.664;10.098;2023-12-04T09:11:25;-3272.10;83.70
43808;DHT22;29438;50.664;10.098;2023-12-04T09:13:51;-3272.20;84.80
43808;DHT22;29438;50.664;10.098;2023-12-04T09:16:16;-3272.00;83.90
43808;DHT22;29438;50.664;10.098;2023-12-04T09:18:42;-3272.10;84.30
43808;DHT22;29438;50.664;10.098;2023-12-04T09:21:07;-3272.30;83.70
43808;DHT22;29438;50.664;10.098;2023-12-04T09:23:34;-3272.50;83.30
43808;DHT22;29438;50.664;10.098;2023-12-04T09:26:00;-3272.60;83.30
43808;DHT22;29438;50.664;10.098;2023-12-04T09:28:25;-3272.70;82.50
43808;DHT22;29438;50.664;10.098;2023-12-04T09:30:51;-3272.70;82.40
43808;DHT22;29438;50.664;10.098;2023-12-04T09:33:16;-3272.70;82.10
43808;DHT22;29438;50.664;10.098;2023-12-04T09:35:42;-3272.80;82.20
43808;DHT22;29438;50.664;10.098;2023-12-04T09:38:08;-3273.00;82.00
43808;DHT22;29438;50.664;10.098;2023-12-04T09:40:33;-3272.90;81.40
43808;DHT22;29438;50.664;10.098;2023-12-04T09:42:59;-3273.00;81.30
43808;DHT22;29438;50.664;10.098;2023-12-04T09:45:24;-3273.30;80.60
43808;DHT22;29438;50.664;10.098;2023-12-04T09:47:50;-3273.70;80.60
43808;DHT22;29438;50.664;10.098;2023-12-04T09:50:16;-3274.20;79.40
43808;DHT22;29438;50.664;10.098;2023-12-04T09:52:49;-3274.50;78.40
43808;DHT22;29438;50.664;10.098;2023-12-04T09:55:15;-3274.60;77.10
43808;DHT22;29438;50.664;10.098;2023-12-04T09:57:41;-3274.30;78.20
43808;DHT22;29438;50.664;10.098;2023-12-04T10:00:08;-3274.60;77.40
43808;DHT22;29438;50.664;10.098;2023-12-04T10:02:35;-3274.50;76.80
43808;DHT22;29438;50.664;10.098;2023-12-04T10:05:02;-3274.50;77.10
43808;DHT22;29438;50.664;10.098;2023-12-04T10:07:30;-3274.50;77.30
43808;DHT22;29438;50.664;10.098;2023-12-04T10:09:55;-3274.50;76.70
43808;DHT22;29438;50.664;10.098;2023-12-04T10:12:21;-3274.70;77.00
43808;DHT22;29438;50.664;10.098;2023-12-04T10:17:34;-3273.90;77.80
43808;DHT22;29438;50.664;10.098;2023-12-04T10:20:10;-3274.00;78.40
43808;DHT22;29438;50.664;10.098;2023-12-04T10:25:23;-3274.00;79.70
43808;DHT22;29438;50.664;10.098;2023-12-04T10:27:51;-3273.80;79.80
43808;DHT22;29438;50.664;10.098;2023-12-04T10:30:27;-3273.80;79.40
43808;DHT22;29438;50.664;10.098;2023-12-04T10:32:57;-3273.80;79.70
43808;DHT22;29438;50.664;10.098;2023-12-04T10:35:28;-3273.70;80.10
43808;DHT22;29438;50.664;10.098;2023-12-04T10:37:56;-3273.80;80.40
43808;DHT22;29438;50.664;10.098;2023-12-04T10:40:26;-3273.70;80.30
43808;DHT22;29438;50.664;10.098;2023-12-04T10:43:10;-3274.00;80.20
43808;DHT22;29438;50.664;10.098;2023-12-04T10:45:37;-3273.70;79.30
43808;DHT22;29438;50.664;10.098;2023-12-04T10:48:03;-3273.70;78.90
43808;DHT22;29438;50.664;10.098;2023-12-04T10:50:32;-3273.70;79.10
43808;DHT22;29438;50.664;10.098;2023-12-04T10:53:01;-3273.70;79.00
43808;DHT22;29438;50.664;10.098;2023-12-04T10:55:27;-3273.60;80.20
43808;DHT22;29438;50.664;10.098;2023-12-04T10:57:54;-3273.60;79.80
43808;DHT22;29438;50.664;10.098;2023-12-04T11:00:20;-3273.40;80.50
43808;DHT22;29438;50.664;10.098;2023-12-04T11:02:48;-3273.50;79.80
43808;DHT22;29438;50.664;10.098;2023-12-04T11:05:16;-3273.50;80.30
43808;DHT22;29438;50.664;10.098;2023-12-04T11:07:56;-3273.40;80.50
43808;DHT22;29438;50.664;10.098;2023-12-04T11:10:26;-3273.30;80.50
43808;DHT22;29438;50.664;10.098;2023-12-04T11:13:08;-3273.40;80.30
43808;DHT22;29438;50.664;10.098;2023-12-04T11:15:40;-3273.50;79.80
43808;DHT22;29438;50.664;10.098;2023-12-04T11:18:07;-3273.50;79.80
43808;DHT22;29438;50.664;10.098;2023-12-04T11:20:39;-3273.50;80.10
43808;DHT22;29438;50.664;10.098;2023-12-04T11:23:06;-3273.40;80.70
43808;DHT22;29438;50.664;10.098;2023-12-04T11:25:33;-3273.40;80.50
43808;DHT22;29438;50.664;10.098;2023-12-04T11:28:00;-3273.50;80.90
43808;DHT22;29438;50.664;10.098;2023-12-04T11:30:27;-3273.40;81.10
43808;DHT22;29438;50.664;10.098;2023-12-04T11:32:54;-3273.50;80.40
43808;DHT22;29438;50.664;10.098;2023-12-04T11:35:22;-3273.60;80.30
43808;DHT22;29438;50.664;10.098;2023-12-04T11:37:50;-3273.80;79.30
43808;DHT22;29438;50.664;10.098;2023-12-04T11:40:17;-3273.70;79.60
43808;DHT22;29438;50.664;10.098;2023-12-04T11:42:43;-3273.50;80.80
43808;DHT22;29438;50.664;10.098;2023-12-04T11:45:09;-3273.50;80.70
43808;DHT22;29438;50.664;10.098;2023-12-04T11:47:56;-3273.70;80.70
43808;DHT22;29438;50.664;10.098;2023-12-04T11:50:24;-3273.80;79.70
43808;DHT22;29438;50.664;10.098;2023-12-04T11:52:49;-3273.90;79.60
43808;DHT22;29438;50.664;10.098;2023-12-04T11:55:22;-3273.90;79.30
43808;DHT22;29438;50.664;10.098;2023-12-04T11:57:50;-3273.90;79.10
43808;DHT22;29438;50.664;10.098;2023-12-04T12:00:23;-3273.80;79.30
43808;DHT22;29438;50.664;10.098;2023-12-04T12:05:21;-3274.10;79.40
43808;DHT22;29438;50.664;10.098;2023-12-04T12:07:47;-3274.10;79.60
43808;DHT22;29438;50.664;10.098;2023-12-04T12:10:13;-3274.20;79.50
43808;DHT22;29438;50.664;10.098;2023-12-04T12:12:40;-3274.00;78.50
43808;DHT22;29438;50.664;10.098;2023-12-04T12:15:09;-3274.10;78.40
43808;DHT22;29438;50.664;10.098;2023-12-04T12:17:35;-3274.10;76.80
43808;DHT22;29438;50.664;10.098;2023-12-04T12:20:00;-3274.30;77.40
43808;DHT22;29438;50.664;10.098;2023-12-04T12:22:26;-3274.30;78.20
43808;DHT22;29438;50.664;10.098;2023-12-04T12:24:51;-3274.10;79.00
43808;DHT22;29438;50.664;10.098;2023-12-04T12:27:17;-3273.90;78.80
43808;DHT22;29438;50.664;10.098;2023-12-04T12:29:43;-3273.90;79.00
43808;DHT22;29438;50.664;10.098;2023-12-04T12:32:08;-3274.10;79.40
43808;DHT22;29438;50.664;10.098;2023-12-04T12:34:34;-3274.10;78.50
43808;DHT22;29438;50.664;10.098;2023-12-04T12:37:02;-3274.10;78.80
43808;DHT22;29438;50.664;10.098;2023-12-04T12:39:29;-3274.10;79.20
43808;DHT22;29438;50.664;10.098;2023-12-04T12:41:55;-3274.20;78.30
43808;DHT22;29438;50.664;10.098;2023-12-04T12:44:20;-3274.10;78.30
43808;DHT22;29438;50.664;10.098;2023-12-04T12:46:50;-3274.30;78.60
43808;DHT22;29438;50.664;10.098;2023-12-04T12:49:19;-3274.50;77.80
43808;DHT22;29438;50.664;10.098;2023-12-04T12:51:45;-3274.50;77.30
43808;DHT22;29438;50.664;10.098;2023-12-04T12:54:11;-3274.40;76.60
43808;DHT22;29438;50.664;10.098;2023-12-04T12:56:37;-3274.30;76.80
43808;DHT22;29438;50.664;10.098;2023-12-04T12:59:02;-3274.40;77.30
43808;DHT22;29438;50.664;10.098;2023-12-04T13:01:31;-3274.40;77.80
43808;DHT22;29438;50.664;10.098;2023-12-04T13:03:57;-3274.40;75.90
43808;DHT22;29438;50.664;10.098;2023-12-04T13:09:44;-3274.50;77.20
43808;DHT22;29438;50.664;10.098;2023-12-04T13:12:10;-3274.30;77.50
43808;DHT22;29438;50.664;10.098;2023-12-04T13:14:36;-3274.40;77.10
43808;DHT22;29438;50.664;10.098;2023-12-04T13:17:02;-3274.30;77.40
43808;DHT22;29438;50.664;10.098;2023-12-04T13:19:28;-3274.20;77.90
43808;DHT22;29438;50.664;10.098;2023-12-04T13:21:53;-3274.30;78.20
43808;DHT22;29438;50.664;10.098;2023-12-04T13:24:19;-3274.20;78.40
43808;DHT22;29438;50.664;10.098;2023-12-04T13:26:45;-3274.30;78.00
43808;DHT22;29438;50.664;10.098;2023-12-04T13:29:11;-3274.30;77.30
43808;DHT22;29438;50.664;10.098;2023-12-04T13:31:37;-3274.10;77.90
43808;DHT22;29438;50.664;10.098;2023-12-04T13:34:03;-3274.10;78.20
43808;DHT22;29438;50.664;10.098;2023-12-04T13:36:32;-3274.00;78.70
43808;DHT22;29438;50.664;10.098;2023-12-04T13:38:57;-3274.10;78.90
43808;DHT22;29438;50.664;10.098;2023-12-04T13:41:23;-3274.10;78.60
43808;DHT22;29438;50.664;10.098;2023-12-04T13:44:07;-3274.10;79.00
43808;DHT22;29438;50.664;10.098;2023-12-04T13:46:33;-3274.20;78.90
43808;DHT22;29438;50.664;10.098;2023-12-04T13:48:59;-3274.20;78.70
43808;DHT22;29438;50.664;10.098;2023-12-04T13:51:25;-3274.00;78.70
43808;DHT22;29438;50.664;10.098;2023-12-04T13:53:51;-3274.00;79.60
43808;DHT22;29438;50.664;10.098;2023-12-04T13:56:21;-3274.00;79.50
43808;DHT22;29438;50.664;10.098;2023-12-04T13:58:47;-3274.00;79.40
43808;DHT22;29438;50.664;10.098;2023-12-04T14:01:19;-3273.90;79.70
43808;DHT22;29438;50.664;10.098;2023-12-04T14:03:48;-3273.90;79.80
43808;DHT22;29438;50.664;10.098;2023-12-04T14:06:14;-3273.90;80.10
43808;DHT22;29438;50.664;10.098;2023-12-04T14:08:42;-3273.80;80.10
43808;DHT22;29438;50.664;10.098;2023-12-04T14:11:08;-3273.80;80.20
43808;DHT22;29438;50.664;10.098;2023-12-04T14:13:36;-3273.70;80.50
43808;DHT22;29438;50.664;10.098;2023-12-04T14:16:02;-3273.70;81.00
43808;DHT22;29438;50.664;10.098;2023-12-04T14:18:28;-3273.60;81.50
43808;DHT22;29438;50.664;10.098;2023-12-04T14:20:55;-3273.50;81.40
43808;DHT22;29438;50.664;10.098;2023-12-04T14:23:21;-3273.50;81.80
43808;DHT22;29438;50.664;10.098;2023-12-04T14:25:47;-3273.50;82.20
43808;DHT22;29438;50.664;10.098;2023-12-04T14:28:12;-3273.60;82.50
43808;DHT22;29438;50.664;10.098;2023-12-04T14:30:38;-3273.50;82.20
43808;DHT22;29438;50.664;10.098;2023-12-04T14:33:03;-3273.50;82.60
43808;DHT22;29438;50.664;10.098;2023-12-04T14:35:29;-3273.50;82.50
43808;DHT22;29438;50.664;10.098;2023-12-04T14:37:55;-3273.50;82.50
43808;DHT22;29438;50.664;10.098;2023-12-04T14:40:20;-3273.30;82.90
43808;DHT22;29438;50.664;10.098;2023-12-04T14:42:46;-3273.30;83.00